sensor_id;sensor_type;location;lat;lon;timestamp;P1;durP1;ratioP1;P2;durP2;ratioP2
76439;SDS011;65274;44.982;20.060;2023-10-08T09:08:35;19.30;;;9.13;;
76439;SDS011;65274;44.982;20.060;2023-10-08T09:30:23;24.98;;;10.52;;
76439;SDS011;65274;44.982;20.060;2023-10-08T09:35:59;17.92;;;7.57;;
76439;SDS011;65274;44.982;20.060;2023-10-08T09:38:46;25.38;;;10.05;;
76439;SDS011;65274;44.982;20.060;2023-10-08T09:41:32;20.70;;;9.10;;
76439;SDS011;65274;44.982;20.060;2023-10-08T09:43:58;16.75;;;9.23;;
76439;SDS011;65274;44.982;20.060;2023-10-08T09:46:31;19.45;;;9.00;;
76439;SDS011;65274;44.982;20.060;2023-10-08T09:52:09;18.42;;;6.75;;
76439;SDS011;65274;44.982;20.060;2023-10-08T09:54:46;14.18;;;6.35;;
76439;SDS011;65274;44.982;20.060;2023-10-08T09:57:20;19.65;;;6.40;;
76439;SDS011;65274;44.982;20.060;2023-10-08T10:02:59;12.32;;;5.72;;
76439;SDS011;65274;44.982;20.060;2023-10-08T10:05:30;16.30;;;6.20;;
76439;SDS011;65274;44.982;20.060;2023-10-08T10:08:06;15.50;;;6.40;;
76439;SDS011;65274;44.982;20.060;2023-10-08T10:13:50;15.68;;;6.05;;
76439;SDS011;65274;44.982;20.060;2023-10-08T10:16:25;18.17;;;7.20;;
76439;SDS011;65274;44.982;20.060;2023-10-08T10:18:59;15.48;;;7.50;;
76439;SDS011;65274;44.982;20.060;2023-10-08T10:21:26;13.82;;;8.32;;
76439;SDS011;65274;44.982;20.060;2023-10-08T10:23:56;21.45;;;10.05;;
76439;SDS011;65274;44.982;20.060;2023-10-08T10:26:34;14.30;;;7.88;;
76439;SDS011;65274;44.982;20.060;2023-10-08T10:31:56;16.75;;;7.50;;
76439;SDS011;65274;44.982;20.060;2023-10-08T10:40:35;18.45;;;10.70;;
76439;SDS011;65274;44.982;20.060;2023-10-08T10:46:41;21.17;;;4.78;;
76439;SDS011;65274;44.982;20.060;2023-10-08T10:49:10;17.75;;;4.45;;
76439;SDS011;65274;44.982;20.060;2023-10-08T10:51:55;45.20;;;7.20;;
76439;SDS011;65274;44.982;20.060;2023-10-08T10:54:24;43.20;;;5.88;;
76439;SDS011;65274;44.982;20.060;2023-10-08T10:56:51;20.40;;;4.03;;
76439;SDS011;65274;44.982;20.060;2023-10-08T10:59:45;34.95;;;6.70;;
76439;SDS011;65274;44.982;20.060;2023-10-08T11:05:15;18.85;;;3.88;;
76439;SDS011;65274;44.982;20.060;2023-10-08T11:07:49;19.52;;;4.43;;
76439;SDS011;65274;44.982;20.060;2023-10-08T11:10:37;18.98;;;4.07;;
76439;SDS011;65274;44.982;20.060;2023-10-08T11:13:04;15.05;;;3.97;;
76439;SDS011;65274;44.982;20.060;2023-10-08T11:15:39;13.95;;;5.07;;
76439;SDS011;65274;44.982;20.060;2023-10-08T11:18:13;12.80;;;4.80;;
76439;SDS011;65274;44.982;20.060;2023-10-08T11:20:42;12.52;;;4.35;;
76439;SDS011;65274;44.982;20.060;2023-10-08T11:23:30;14.52;;;3.90;;
76439;SDS011;65274;44.982;20.060;2023-10-08T11:26:05;9.50;;;4.00;;
76439;SDS011;65274;44.982;20.060;2023-10-08T11:28:33;18.00;;;5.03;;
76439;SDS011;65274;44.982;20.060;2023-10-08T11:31:01;7.78;;;3.67;;
76439;SDS011;65274;44.982;20.060;2023-10-08T11:33:36;16.67;;;4.18;;
76439;SDS011;65274;44.982;20.060;2023-10-08T11:36:07;16.33;;;4.00;;
76439;SDS011;65274;44.982;20.060;2023-10-08T11:38:52;13.07;;;4.28;;
76439;SDS011;65274;44.982;20.060;2023-10-08T11:41:26;51.10;;;7.25;;
76439;SDS011;65274;44.982;20.060;2023-10-08T11:43:54;16.17;;;4.60;;
76439;SDS011;65274;44.982;20.060;2023-10-08T11:46:29;15.38;;;4.35;;
76439;SDS011;65274;44.982;20.060;2023-10-08T11:49:07;18.48;;;4.65;;
76439;SDS011;65274;44.982;20.060;2023-10-08T11:51:42;24.63;;;4.70;;
76439;SDS011;65274;44.982;20.060;2023-10-08T11:54:09;19.00;;;4.80;;
76439;SDS011;65274;44.982;20.060;2023-10-08T11:56:40;18.38;;;5.15;;
76439;SDS011;65274;44.982;20.060;2023-10-08T11:59:10;16.27;;;4.68;;
76439;SDS011;65274;44.982;20.060;2023-10-08T12:01:38;27.65;;;4.45;;
76439;SDS011;65274;44.982;20.060;2023-10-08T12:04:08;20.48;;;3.65;;
76439;SDS011;65274;44.982;20.060;2023-10-08T12:06:42;21.77;;;3.75;;
76439;SDS011;65274;44.982;20.060;2023-10-08T12:09:17;19.85;;;4.18;;
76439;SDS011;65274;44.982;20.060;2023-10-08T12:11:50;28.30;;;4.55;;
76439;SDS011;65274;44.982;20.060;2023-10-08T12:14:16;27.85;;;4.18;;
76439;SDS011;65274;44.982;20.060;2023-10-08T12:16:45;19.70;;;3.97;;
76439;SDS011;65274;44.982;20.060;2023-10-08T12:19:15;13.60;;;3.90;;
76439;SDS011;65274;44.982;20.060;2023-10-08T12:21:43;28.10;;;4.45;;
76439;SDS011;65274;44.982;20.060;2023-10-08T12:24:13;34.70;;;5.03;;
76439;SDS011;65274;44.982;20.060;2023-10-08T12:26:39;20.17;;;4.10;;
76439;SDS011;65274;44.982;20.060;2023-10-08T12:29:12;28.05;;;4.35;;
76439;SDS011;65274;44.982;20.060;2023-10-08T12:31:51;32.90;;;4.15;;
76439;SDS011;65274;44.982;20.060;2023-10-08T12:34:24;27.23;;;5.00;;
76439;SDS011;65274;44.982;20.060;2023-10-08T12:36:55;34.75;;;4.70;;
76439;SDS011;65274;44.982;20.060;2023-10-08T12:39:27;26.67;;;4.13;;
76439;SDS011;65274;44.982;20.060;2023-10-08T12:42:12;23.33;;;3.92;;
76439;SDS011;65274;44.982;20.060;2023-10-08T12:44:48;38.45;;;3.92;;
76439;SDS011;65274;44.982;20.060;2023-10-08T12:47:14;33.65;;;5.45;;
76439;SDS011;65274;44.982;20.060;2023-10-08T12:49:47;32.15;;;4.78;;
76439;SDS011;65274;44.982;20.060;2023-10-08T12:52:17;23.38;;;4.78;;
76439;SDS011;65274;44.982;20.060;2023-10-08T12:54:45;22.70;;;3.80;;
76439;SDS011;65274;44.982;20.060;2023-10-08T12:57:16;22.95;;;4.57;;
76439;SDS011;65274;44.982;20.060;2023-10-08T12:59:47;19.10;;;3.60;;
76439;SDS011;65274;44.982;20.060;2023-10-08T13:02:16;23.17;;;4.38;;
76439;SDS011;65274;44.982;20.060;2023-10-08T13:04:44;25.33;;;5.65;;
76439;SDS011;65274;44.982;20.060;2023-10-08T13:07:16;17.00;;;3.58;;
76439;SDS011;65274;44.982;20.060;2023-10-08T13:09:47;26.23;;;4.43;;
76439;SDS011;65274;44.982;20.060;2023-10-08T13:12:18;17.63;;;3.85;;
76439;SDS011;65274;44.982;20.060;2023-10-08T13:14:51;19.40;;;5.63;;
76439;SDS011;65274;44.982;20.060;2023-10-08T13:17:24;13.32;;;3.83;;
76439;SDS011;65274;44.982;20.060;2023-10-08T13:19:51;18.40;;;4.10;;
76439;SDS011;65274;44.982;20.060;2023-10-08T13:22:20;16.83;;;4.65;;
76439;SDS011;65274;44.982;20.060;2023-10-08T13:24:47;21.38;;;6.18;;
76439;SDS011;65274;44.982;20.060;2023-10-08T13:27:22;22.85;;;5.00;;
76439;SDS011;65274;44.982;20.060;2023-10-08T13:29:51;13.90;;;4.68;;
76439;SDS011;65274;44.982;20.060;2023-10-08T13:32:20;18.90;;;5.60;;
76439;SDS011;65274;44.982;20.060;2023-10-08T13:34:46;21.08;;;5.10;;
76439;SDS011;65274;44.982;20.060;2023-10-08T13:39:51;18.45;;;3.63;;
76439;SDS011;65274;44.982;20.060;2023-10-08T13:42:18;14.15;;;3.88;;
76439;SDS011;65274;44.982;20.060;2023-10-08T13:44:45;12.55;;;3.83;;
76439;SDS011;65274;44.982;20.060;2023-10-08T13:47:16;25.15;;;5.47;;
76439;SDS011;65274;44.982;20.060;2023-10-08T13:52:12;14.85;;;4.18;;
76439;SDS011;65274;44.982;20.060;2023-10-08T13:54:39;14.25;;;3.80;;
76439;SDS011;65274;44.982;20.060;2023-10-08T13:57:12;12.60;;;3.35;;
76439;SDS011;65274;44.982;20.060;2023-10-08T13:59:40;15.38;;;4.18;;
76439;SDS011;65274;44.982;20.060;2023-10-08T14:02:32;15.20;;;4.38;;
76439;SDS011;65274;44.982;20.060;2023-10-08T14:05:00;11.55;;;2.60;;
76439;SDS011;65274;44.982;20.060;2023-10-08T14:10:35;14.25;;;4.20;;
76439;SDS011;65274;44.982;20.060;2023-10-08T14:13:04;17.10;;;3.72;;
76439;SDS011;65274;44.982;20.060;2023-10-08T14:15:32;11.63;;;3.40;;
76439;SDS011;65274;44.982;20.060;2023-10-08T14:17:59;13.93;;;3.33;;
76439;SDS011;65274;44.982;20.060;2023-10-08T14:20:30;29.45;;;5.25;;
76439;SDS011;65274;44.982;20.060;2023-10-08T14:22:56;24.35;;;8.75;;
76439;SDS011;65274;44.982;20.060;2023-10-08T14:25:27;15.30;;;4.57;;
76439;SDS011;65274;44.982;20.060;2023-10-08T14:28:06;17.98;;;3.90;;
